Gaz Palmyra — 3FCO4 — position and weather

sailwx.info

Track history (hours):
 
Tides and Currents Weather Stations Pressure Air Temp Water Temp Dewpoint Dewpoint Depression Visibility Wind Speed Wind Dir Waves Ship Positions

Gaz Palmyra

Last reported at 2014-Oct-17 01:32 UTC. Time now 2014-Oct-24 09:34 UTC.
Position N 37°06' E 003°54'.

Length 137 m; draft 8.1 m.

Type: Ship (hazmat cat C). MMSI: 353247000.

Date/timePositionNaut miles runAvg speedWind from/ knotsBaromVisibWave heightAir tempDewpointWater temp
2014-Oct-17 01:32N 37°06' E 003°54'  
2014-Oct-09 06:28N 36°46' E 003°04'3 3.8
2014-Oct-09 05:33N 36°49' E 003°07'3 0.9
2014-Oct-09 02:33N 36°51' E 003°07'2812.3
2014-Oct-09 00:17N 36°51' E 002°32'1013.1
2014-Oct-08 23:34N 36°51' E 002°20'1312.9
2014-Oct-08 22:33N 36°49' E 002°04'1413.8
2014-Oct-08 21:33N 36°48' E 001°47'1413.7
2014-Oct-08 20:32N 36°46' E 001°30'1413.9
2014-Oct-08 19:33N 36°44' E 001°13'1613.3
2014-Oct-08 18:23N 36°41' E 000°54'1113.6
2014-Oct-08 17:33N 36°36' E 000°41'1414.1
2014-Oct-08 16:33N 36°28' E 000°27'1514.5
2014-Oct-08 15:31N 36°16' E 000°14'1614.1
2014-Oct-08 14:21N 36°04' E 000°01'1113.4
2014-Oct-08 13:31N 35°56' W 000°09'  
Track history (hours):
 
Tides and Currents Weather Stations Pressure Air Temp Water Temp Dewpoint Dewpoint Depression Visibility Wind Speed Wind Dir Waves Ship Positions

Gaz Palmyra

Last reported at 2014-Oct-17 01:32 UTC. Time now 2014-Oct-24 09:34 UTC.
Position N 37°06' E 003°54'.

Length 137 m; draft 8.1 m.

Type: Ship (hazmat cat C). MMSI: 353247000.

Date/timePositionNaut miles runAvg speedWind from/ knotsBaromVisibWave heightAir tempDewpointWater temp
2014-Oct-17 01:32N 37°06' E 003°54'  
2014-Oct-09 06:28N 36°46' E 003°04'3 3.8
2014-Oct-09 05:33N 36°49' E 003°07'3 0.9
2014-Oct-09 02:33N 36°51' E 003°07'2812.3
2014-Oct-09 00:17N 36°51' E 002°32'1013.1
2014-Oct-08 23:34N 36°51' E 002°20'1312.9
2014-Oct-08 22:33N 36°49' E 002°04'1413.8
2014-Oct-08 21:33N 36°48' E 001°47'1413.7
2014-Oct-08 20:32N 36°46' E 001°30'1413.9
2014-Oct-08 19:33N 36°44' E 001°13'1613.3
2014-Oct-08 18:23N 36°41' E 000°54'1113.6
2014-Oct-08 17:33N 36°36' E 000°41'1414.1
2014-Oct-08 16:33N 36°28' E 000°27'1514.5
2014-Oct-08 15:31N 36°16' E 000°14'1614.1
2014-Oct-08 14:21N 36°04' E 000°01'1113.4
2014-Oct-08 13:31N 35°56' W 000°09'  

Dump ship's entire track history